createdAt,value
2018-07-15T00:02:27.719Z,81.70
2018-07-15T00:04:56.255Z,81.60
2018-07-15T00:07:24.745Z,81.60
2018-07-15T00:09:53.147Z,81.80
2018-07-15T00:12:21.535Z,81.10
2018-07-15T00:14:49.919Z,81.50
2018-07-15T00:17:18.288Z,81.30
2018-07-15T00:19:46.681Z,82.60
2018-07-15T00:22:15.103Z,81.50
2018-07-15T00:24:50.179Z,81.30
2018-07-15T00:27:18.522Z,81.90
2018-07-15T00:29:46.892Z,81.20
2018-07-15T00:32:15.839Z,81.90
2018-07-15T00:34:44.223Z,81.70
2018-07-15T00:37:12.656Z,82.50
2018-07-15T00:39:41.034Z,82.40
2018-07-15T00:42:09.383Z,82.50
2018-07-15T00:44:37.784Z,82.40
2018-07-15T00:47:06.133Z,82.80
2018-07-15T00:49:34.554Z,83.00
2018-07-15T00:52:03.591Z,83.20
2018-07-15T00:54:32.010Z,83.60
2018-07-15T00:57:00.366Z,83.50
2018-07-15T00:59:28.726Z,83.10
2018-07-15T01:01:57.095Z,83.40
2018-07-15T01:04:25.464Z,83.80
2018-07-15T01:06:53.887Z,83.30
2018-07-15T01:09:22.276Z,83.40
2018-07-15T01:11:50.662Z,82.80
2018-07-15T01:14:19.036Z,82.10
2018-07-15T01:16:47.407Z,82.70
2018-07-15T01:19:15.883Z,82.80
2018-07-15T01:21:44.242Z,82.50
2018-07-15T01:24:12.672Z,83.00
2018-07-15T01:26:41.020Z,82.70
2018-07-15T01:29:09.418Z,83.10
2018-07-15T01:31:37.811Z,83.10
2018-07-15T01:34:06.224Z,82.90
2018-07-15T01:36:34.665Z,83.30
2018-07-15T01:39:03.563Z,82.90
2018-07-15T01:41:31.918Z,82.60
2018-07-15T01:44:00.348Z,82.30
2018-07-15T01:46:29.049Z,82.30
2018-07-15T01:48:57.452Z,82.60
2018-07-15T01:51:25.882Z,81.90
2018-07-15T01:53:54.360Z,81.90
2018-07-15T01:56:22.755Z,81.80
2018-07-15T01:58:51.116Z,81.60
2018-07-15T02:01:19.519Z,82.00
2018-07-15T02:03:47.942Z,81.40
2018-07-15T02:06:16.345Z,81.40
2018-07-15T02:08:44.749Z,81.30
2018-07-15T02:11:13.140Z,81.10
2018-07-15T02:13:41.530Z,80.50
2018-07-15T02:16:09.943Z,81.30
2018-07-15T02:18:38.329Z,80.90
2018-07-15T02:21:06.798Z,81.20
2018-07-15T02:23:35.307Z,81.00
2018-07-15T02:26:03.730Z,81.10
2018-07-15T02:28:32.132Z,81.20
2018-07-15T02:31:00.574Z,81.30
2018-07-15T02:33:29.004Z,81.60
2018-07-15T02:35:57.429Z,81.50
2018-07-15T02:38:25.792Z,81.30
2018-07-15T02:40:54.375Z,81.70
2018-07-15T02:43:22.823Z,82.20
2018-07-15T02:45:51.180Z,82.30
2018-07-15T02:48:19.574Z,81.90
2018-07-15T02:50:47.919Z,82.20
2018-07-15T02:53:16.377Z,81.90
2018-07-15T02:55:44.779Z,82.20
2018-07-15T02:58:13.158Z,82.40
2018-07-15T03:00:41.607Z,82.40
2018-07-15T03:03:10.002Z,82.70
2018-07-15T03:05:38.354Z,83.10
2018-07-15T03:08:06.791Z,82.80
2018-07-15T03:10:35.218Z,83.20
2018-07-15T03:13:03.906Z,83.60
2018-07-15T03:15:32.293Z,84.10
2018-07-15T03:18:00.673Z,84.40
2018-07-15T03:20:29.087Z,84.60
2018-07-15T03:22:57.487Z,84.60
2018-07-15T03:25:25.891Z,84.50
2018-07-15T03:27:54.292Z,84.50
2018-07-15T03:30:22.696Z,84.70
2018-07-15T03:32:51.076Z,84.40
2018-07-15T03:35:19.467Z,84.40
2018-07-15T03:37:47.897Z,84.10
2018-07-15T03:40:16.302Z,84.00
2018-07-15T03:42:44.785Z,83.60
2018-07-15T03:45:13.153Z,83.70
2018-07-15T03:47:42.220Z,83.60
2018-07-15T03:50:10.657Z,84.10
2018-07-15T03:52:39.029Z,84.10
2018-07-15T03:55:07.526Z,84.30
2018-07-15T03:57:35.921Z,84.30
2018-07-15T04:00:04.339Z,84.30
2018-07-15T04:02:32.797Z,84.30
2018-07-15T04:05:01.279Z,84.40
2018-07-15T04:07:29.695Z,84.10
2018-07-15T04:09:58.159Z,83.50
2018-07-15T04:12:26.582Z,84.20
2018-07-15T04:14:54.984Z,84.30
2018-07-15T04:17:23.463Z,84.10
2018-07-15T04:19:51.866Z,84.20
2018-07-15T04:22:20.551Z,84.20
2018-07-15T04:24:48.912Z,84.40
2018-07-15T04:27:17.335Z,84.00
2018-07-15T04:29:45.798Z,84.10
2018-07-15T04:32:14.247Z,84.10
2018-07-15T04:34:42.658Z,83.90
2018-07-15T04:37:11.099Z,84.00
2018-07-15T04:39:39.515Z,85.00
2018-07-15T04:42:07.953Z,84.10
2018-07-15T04:44:36.316Z,83.80
2018-07-15T04:47:04.700Z,83.60
2018-07-15T04:49:33.081Z,83.30
2018-07-15T04:52:01.464Z,83.00
2018-07-15T04:54:29.921Z,82.50
2018-07-15T04:56:58.295Z,82.60
2018-07-15T04:59:26.694Z,82.80
2018-07-15T05:01:55.096Z,82.70
2018-07-15T05:04:23.416Z,82.70
2018-07-15T05:06:51.819Z,82.40
2018-07-15T05:09:20.240Z,82.20
2018-07-15T05:11:48.645Z,82.00
2018-07-15T05:14:17.368Z,82.00
2018-07-15T05:16:45.763Z,81.90
2018-07-15T05:19:14.212Z,81.70
2018-07-15T05:21:42.612Z,81.30
2018-07-15T05:24:11.048Z,81.20
2018-07-15T05:26:39.397Z,81.30
2018-07-15T05:29:07.768Z,81.10
2018-07-15T05:31:36.171Z,80.90
2018-07-15T05:34:04.533Z,80.90
2018-07-15T05:36:32.896Z,80.50
2018-07-15T05:39:01.323Z,79.30
2018-07-15T05:41:29.720Z,79.80
2018-07-15T05:43:58.088Z,79.80
2018-07-15T05:46:26.464Z,78.60
2018-07-15T05:48:54.903Z,79.00
2018-07-15T05:51:23.360Z,78.20
2018-07-15T05:53:51.753Z,77.90
2018-07-15T05:56:20.163Z,77.80
2018-07-15T05:58:48.576Z,77.90
2018-07-15T06:01:16.951Z,78.00
2018-07-15T06:03:45.481Z,77.40
2018-07-15T06:06:14.181Z,77.30
2018-07-15T06:08:42.590Z,77.50
2018-07-15T06:11:10.950Z,76.50
2018-07-15T06:13:39.705Z,76.20
2018-07-15T06:16:08.104Z,75.90
2018-07-15T06:18:36.524Z,75.70
2018-07-15T06:21:05.028Z,75.80
2018-07-15T06:23:33.422Z,74.60
2018-07-15T06:26:02.025Z,74.30
2018-07-15T06:28:30.444Z,74.00
2018-07-15T06:30:58.921Z,74.00
2018-07-15T06:33:27.302Z,73.40
2018-07-15T06:35:55.894Z,72.80
2018-07-15T06:38:24.274Z,72.50
2018-07-15T06:40:52.949Z,72.40
2018-07-15T06:43:21.335Z,72.90
2018-07-15T06:45:49.769Z,72.40
2018-07-15T06:48:18.163Z,72.30
2018-07-15T06:50:46.545Z,72.10
2018-07-15T06:53:15.048Z,71.80
2018-07-15T06:55:43.471Z,71.30
2018-07-15T06:58:11.932Z,71.30
2018-07-15T07:00:40.409Z,71.20
2018-07-15T07:03:08.849Z,70.80
2018-07-15T07:05:37.284Z,70.60
2018-07-15T07:08:05.656Z,69.40
2018-07-15T07:10:34.092Z,69.20
2018-07-15T07:13:02.451Z,69.20
2018-07-15T07:15:30.960Z,69.00
2018-07-15T07:17:59.365Z,68.70
2018-07-15T07:20:27.771Z,68.60
2018-07-15T07:22:56.174Z,68.40
2018-07-15T07:25:24.601Z,68.30
2018-07-15T07:27:53.046Z,68.30
2018-07-15T07:30:21.428Z,68.00
2018-07-15T07:32:49.770Z,67.90
2018-07-15T07:35:18.145Z,67.70
2018-07-15T07:38:14.156Z,67.40
2018-07-15T07:40:43.128Z,67.00
2018-07-15T07:43:12.278Z,65.70
2018-07-15T07:45:44.658Z,65.50
2018-07-15T07:48:13.148Z,64.50
2018-07-15T07:50:41.547Z,64.30
2018-07-15T07:53:10.393Z,64.40
2018-07-15T07:55:38.750Z,63.70
2018-07-15T07:58:13.876Z,63.10
2018-07-15T08:00:42.259Z,62.30
2018-07-15T08:03:11.082Z,60.00
2018-07-15T08:05:39.518Z,60.40
2018-07-15T08:08:07.945Z,59.20
2018-07-15T08:10:36.361Z,58.80
2018-07-15T08:13:04.800Z,58.60
2018-07-15T08:15:33.248Z,57.60
2018-07-15T08:18:06.442Z,57.70
2018-07-15T08:20:35.224Z,57.30
2018-07-15T08:23:03.684Z,57.10
2018-07-15T08:25:32.354Z,56.30
2018-07-15T08:28:00.734Z,55.90
2018-07-15T08:30:40.508Z,56.10
2018-07-15T08:33:08.901Z,56.20
2018-07-15T08:35:37.311Z,55.00
2018-07-15T08:38:05.721Z,55.00
2018-07-15T08:40:34.092Z,55.80
2018-07-15T08:43:02.496Z,55.70
2018-07-15T08:45:30.883Z,53.60
2018-07-15T08:47:59.354Z,53.70
2018-07-15T08:50:27.666Z,53.40
2018-07-15T08:52:56.091Z,53.80
2018-07-15T08:55:24.483Z,51.90
2018-07-15T08:57:52.852Z,52.30
2018-07-15T09:00:21.307Z,52.20
2018-07-15T09:02:49.798Z,52.00
2018-07-15T09:05:18.160Z,51.80
2018-07-15T09:07:46.506Z,51.20
2018-07-15T09:10:15.350Z,50.70
2018-07-15T09:12:43.864Z,49.90
2018-07-15T09:15:12.110Z,50.00
2018-07-15T09:17:40.445Z,49.20
2018-07-15T09:20:08.776Z,49.20
2018-07-15T09:22:37.431Z,48.90
2018-07-15T09:25:05.738Z,47.90
2018-07-15T09:27:34.109Z,48.00
2018-07-15T09:30:03.130Z,48.30
2018-07-15T09:32:31.587Z,48.10
2018-07-15T09:34:59.954Z,47.30
2018-07-15T09:37:28.292Z,46.40
2018-07-15T09:39:56.945Z,45.70
2018-07-15T09:42:25.352Z,45.90
2018-07-15T09:44:54.137Z,45.00
2018-07-15T09:47:22.515Z,46.20
2018-07-15T09:49:50.891Z,46.80
2018-07-15T09:52:19.350Z,46.00
2018-07-15T09:54:47.732Z,45.20
2018-07-15T09:57:16.475Z,45.40
2018-07-15T09:59:44.793Z,45.40
2018-07-15T10:02:13.114Z,45.00
2018-07-15T10:04:41.670Z,44.00
2018-07-15T10:07:10.021Z,43.70
2018-07-15T10:09:38.420Z,43.40
2018-07-15T10:12:06.896Z,44.50
2018-07-15T10:14:36.047Z,44.10
2018-07-15T10:17:04.436Z,43.20
2018-07-15T10:19:32.801Z,42.20
2018-07-15T10:22:01.282Z,41.40
2018-07-15T10:24:29.706Z,39.80
2018-07-15T10:26:58.084Z,39.30
2018-07-15T10:29:26.419Z,39.30
2018-07-15T10:31:55.722Z,39.60
2018-07-15T10:34:24.585Z,39.20
2018-07-15T10:36:52.976Z,38.30
2018-07-15T10:39:21.318Z,39.00
2018-07-15T10:41:49.660Z,38.50
2018-07-15T10:44:18.247Z,38.70
2018-07-15T10:46:46.559Z,39.90
2018-07-15T10:49:15.052Z,38.60
2018-07-15T10:51:43.412Z,38.00
2018-07-15T10:54:11.800Z,35.50
2018-07-15T10:56:40.132Z,36.00
2018-07-15T10:59:08.466Z,36.20
2018-07-15T11:01:36.832Z,36.60
2018-07-15T11:04:05.193Z,35.80
2018-07-15T11:06:33.723Z,35.90
2018-07-15T11:09:02.097Z,36.90
2018-07-15T11:11:30.470Z,36.80
2018-07-15T11:13:58.806Z,36.00
2018-07-15T11:16:27.160Z,35.80
2018-07-15T11:18:55.511Z,35.20
2018-07-15T11:21:23.921Z,34.90
2018-07-15T11:23:52.268Z,35.20
2018-07-15T11:26:20.704Z,34.30
2018-07-15T11:28:49.066Z,33.10
2018-07-15T11:31:17.416Z,33.20
2018-07-15T11:33:45.771Z,33.70
2018-07-15T11:36:14.186Z,33.50
2018-07-15T11:38:42.597Z,32.60
2018-07-15T11:41:10.935Z,32.90
2018-07-15T11:43:39.313Z,32.60
2018-07-15T11:46:07.686Z,32.30
2018-07-15T11:48:36.258Z,31.90
2018-07-15T11:51:04.597Z,31.50
2018-07-15T11:53:32.939Z,32.90
2018-07-15T11:56:01.363Z,32.70
2018-07-15T11:58:29.811Z,31.60
2018-07-15T12:00:58.172Z,31.50
2018-07-15T12:03:26.595Z,30.60
2018-07-15T12:05:54.967Z,30.30
2018-07-15T12:08:23.379Z,30.20
2018-07-15T12:10:51.804Z,30.00
2018-07-15T12:13:20.629Z,31.30
2018-07-15T12:15:49.059Z,30.70
2018-07-15T12:18:17.711Z,31.20
2018-07-15T12:20:46.097Z,30.00
2018-07-15T12:23:14.614Z,30.70
2018-07-15T12:25:43.128Z,32.20
2018-07-15T12:28:11.489Z,31.70
2018-07-15T12:30:40.293Z,30.50
2018-07-15T12:33:08.642Z,31.10
2018-07-15T12:35:37.034Z,30.50
2018-07-15T12:38:05.475Z,31.10
2018-07-15T12:40:33.848Z,31.10
2018-07-15T12:43:02.383Z,30.50
2018-07-15T12:48:05.437Z,29.60
2018-07-15T12:50:33.780Z,29.80
2018-07-15T12:53:02.278Z,30.90
2018-07-15T12:55:30.664Z,30.00
2018-07-15T12:57:59.053Z,29.50
2018-07-15T13:00:27.419Z,27.80
2018-07-15T13:02:55.847Z,30.10
2018-07-15T13:05:24.261Z,30.10
2018-07-15T13:07:52.583Z,29.70
2018-07-15T13:10:31.736Z,31.00
2018-07-15T13:13:02.130Z,31.30
2018-07-15T13:15:38.337Z,31.90
2018-07-15T13:18:06.727Z,30.30
2018-07-15T13:20:35.079Z,31.80
2018-07-15T13:23:03.393Z,29.70
2018-07-15T13:25:31.829Z,30.40
2018-07-15T13:28:00.166Z,29.00
2018-07-15T13:30:28.495Z,28.10
2018-07-15T13:32:56.872Z,28.80
2018-07-15T13:35:25.253Z,28.80
2018-07-15T13:37:53.620Z,29.90
2018-07-15T13:40:22.003Z,28.40
2018-07-15T13:42:50.345Z,28.30
2018-07-15T13:45:18.817Z,25.40
2018-07-15T13:47:47.198Z,26.60
2018-07-15T13:50:18.523Z,28.30
2018-07-15T13:52:47.159Z,28.20
2018-07-15T13:55:15.533Z,28.80
2018-07-15T13:57:47.508Z,29.40
2018-07-15T14:00:16.116Z,28.70
2018-07-15T14:02:44.516Z,28.20
2018-07-15T14:05:12.945Z,27.80
2018-07-15T14:07:41.270Z,27.60
2018-07-15T14:10:09.632Z,27.00
2018-07-15T14:12:38.335Z,26.80
2018-07-15T14:15:07.204Z,27.20
2018-07-15T14:17:35.836Z,27.60
2018-07-15T14:20:04.288Z,28.40
2018-07-15T14:22:32.816Z,28.50
2018-07-15T14:25:01.276Z,29.20
2018-07-15T14:27:29.642Z,27.90
2018-07-15T14:29:58.021Z,27.80
2018-07-15T14:32:26.339Z,27.50
2018-07-15T14:34:54.691Z,27.30
2018-07-15T14:37:23.831Z,27.80
2018-07-15T14:39:53.937Z,27.00
2018-07-15T14:42:22.287Z,27.10
2018-07-15T14:44:51.384Z,26.60
2018-07-15T14:47:19.731Z,28.50
2018-07-15T14:49:48.118Z,27.50
2018-07-15T14:52:16.482Z,27.60
2018-07-15T14:54:44.818Z,28.00
2018-07-15T14:57:13.312Z,28.20
2018-07-15T14:59:42.522Z,27.20
2018-07-15T15:02:10.975Z,27.50
2018-07-15T15:04:39.653Z,26.60
2018-07-15T15:07:08.011Z,26.30
2018-07-15T15:09:36.442Z,28.70
2018-07-15T15:12:04.868Z,29.20
2018-07-15T15:14:33.287Z,30.00
2018-07-15T15:17:01.708Z,31.80
2018-07-15T15:19:30.128Z,31.10
2018-07-15T15:21:58.567Z,31.80
2018-07-15T15:24:27.032Z,30.60
2018-07-15T15:26:55.478Z,31.50
2018-07-15T15:29:23.933Z,32.20
2018-07-15T15:31:52.416Z,31.90
2018-07-15T15:34:20.767Z,32.70
2018-07-15T15:36:49.242Z,31.20
2018-07-15T15:39:17.611Z,32.80
2018-07-15T15:41:46.018Z,31.70
2018-07-15T15:44:14.511Z,31.70
2018-07-15T15:46:42.993Z,31.90
2018-07-15T15:49:11.381Z,30.90
2018-07-15T15:51:39.922Z,30.30
2018-07-15T15:54:09.025Z,30.30
2018-07-15T15:56:37.466Z,29.70
2018-07-15T15:59:05.973Z,27.90
2018-07-15T16:01:34.408Z,27.30
2018-07-15T16:04:02.981Z,26.80
2018-07-15T16:06:31.344Z,25.80
2018-07-15T16:08:59.713Z,24.40
2018-07-15T16:11:28.096Z,24.40
2018-07-15T16:13:56.489Z,23.00
2018-07-15T16:16:24.937Z,23.40
2018-07-15T16:18:53.327Z,23.10
2018-07-15T16:21:21.724Z,22.50
2018-07-15T16:23:50.200Z,22.80
2018-07-15T16:26:18.663Z,23.60
2018-07-15T16:28:47.042Z,23.10
2018-07-15T16:31:15.482Z,22.70
2018-07-15T16:33:43.921Z,22.00
2018-07-15T16:36:12.325Z,21.80
2018-07-15T16:38:40.755Z,21.90
2018-07-15T16:41:09.221Z,22.00
2018-07-15T16:43:37.691Z,22.70
2018-07-15T16:46:06.055Z,22.00
2018-07-15T16:48:34.439Z,22.10
2018-07-15T16:51:03.016Z,22.00
2018-07-15T16:53:31.434Z,21.80
2018-07-15T16:55:59.966Z,21.80
2018-07-15T16:58:28.294Z,22.50
2018-07-15T17:00:57.195Z,23.00
2018-07-15T17:03:25.743Z,23.10
2018-07-15T17:05:55.311Z,23.20
2018-07-15T17:08:23.842Z,23.70
2018-07-15T17:10:52.306Z,24.20
2018-07-15T17:13:20.992Z,25.10
2018-07-15T17:15:49.423Z,25.40
2018-07-15T17:18:17.948Z,25.30
2018-07-15T17:20:46.499Z,25.80
2018-07-15T17:23:15.066Z,25.90
2018-07-15T17:25:43.571Z,26.30
2018-07-15T17:28:12.164Z,26.90
2018-07-15T17:30:40.682Z,26.70
2018-07-15T17:33:09.308Z,27.70
2018-07-15T17:35:37.884Z,26.90
2018-07-15T17:38:06.311Z,27.40
2018-07-15T17:40:35.371Z,28.60
2018-07-15T17:43:03.878Z,30.50
2018-07-15T17:45:39.560Z,31.80
2018-07-15T17:48:08.828Z,33.40
2018-07-15T17:50:37.571Z,33.80
2018-07-15T17:53:06.174Z,34.30
2018-07-15T17:55:34.700Z,35.70
2018-07-15T17:58:03.209Z,36.60
2018-07-15T18:00:31.716Z,37.30
2018-07-15T18:03:00.361Z,37.40
2018-07-15T18:05:28.987Z,38.20
2018-07-15T18:07:57.460Z,37.90
2018-07-15T18:10:25.876Z,38.30
2018-07-15T18:12:54.657Z,39.00
2018-07-15T18:15:29.501Z,39.00
2018-07-15T18:17:57.961Z,40.70
2018-07-15T18:20:26.459Z,41.60
2018-07-15T18:22:55.053Z,43.20
2018-07-15T18:25:23.474Z,43.10
2018-07-15T18:27:51.868Z,41.60
2018-07-15T18:30:20.244Z,41.90
2018-07-15T18:32:48.646Z,42.60
2018-07-15T18:35:17.064Z,42.00
2018-07-15T18:37:45.412Z,42.40
2018-07-15T18:40:13.948Z,43.30
2018-07-15T18:42:42.592Z,42.60
2018-07-15T18:45:11.045Z,43.60
2018-07-15T18:47:39.402Z,44.20
2018-07-15T18:50:07.786Z,43.10
2018-07-15T18:52:36.168Z,43.40
2018-07-15T18:55:04.744Z,43.90
2018-07-15T18:57:33.279Z,45.50
2018-07-15T19:00:01.891Z,45.30
2018-07-15T19:02:30.247Z,45.00
2018-07-15T19:04:58.676Z,45.10
2018-07-15T19:07:27.011Z,46.20
2018-07-15T19:09:55.514Z,46.00
2018-07-15T19:12:24.098Z,47.10
2018-07-15T19:14:52.509Z,47.40
2018-07-15T19:17:31.473Z,47.60
2018-07-15T19:20:00.209Z,47.90
2018-07-15T19:22:28.700Z,47.90
2018-07-15T19:24:57.350Z,48.60
2018-07-15T19:27:25.737Z,48.90
2018-07-15T19:29:54.135Z,48.90
2018-07-15T19:32:33.338Z,50.10
2018-07-15T19:35:02.034Z,49.30
2018-07-15T19:37:30.436Z,50.30
2018-07-15T19:39:58.917Z,51.10
2018-07-15T19:42:27.366Z,50.90
2018-07-15T19:44:55.762Z,51.70
2018-07-15T19:47:41.251Z,51.70
2018-07-15T19:50:09.770Z,51.90
2018-07-15T19:52:38.260Z,52.70
2018-07-15T19:55:06.794Z,52.30
2018-07-15T19:57:35.188Z,51.90
2018-07-15T20:00:03.662Z,52.70
2018-07-15T20:02:45.146Z,53.20
2018-07-15T20:05:13.567Z,52.50
2018-07-15T20:07:41.942Z,52.90
2018-07-15T20:10:10.445Z,52.50
2018-07-15T20:12:38.827Z,52.60
2018-07-15T20:15:07.254Z,52.70
2018-07-15T20:17:39.094Z,52.00
2018-07-15T20:20:09.583Z,52.10
2018-07-15T20:22:38.033Z,51.90
2018-07-15T20:25:06.641Z,52.40
2018-07-15T20:27:35.104Z,52.00
2018-07-15T20:30:03.483Z,52.20
2018-07-15T20:32:41.981Z,52.60
2018-07-15T20:35:10.552Z,52.40
2018-07-15T20:37:38.971Z,52.90
2018-07-15T20:40:07.409Z,53.00
2018-07-15T20:42:35.732Z,53.50
2018-07-15T20:45:04.349Z,53.50
2018-07-15T20:47:44.758Z,53.60
2018-07-15T20:50:13.353Z,53.70
2018-07-15T20:52:41.841Z,54.00
2018-07-15T20:55:10.253Z,54.30
2018-07-15T20:57:38.699Z,55.00
2018-07-15T21:00:07.179Z,54.90
2018-07-15T21:02:35.584Z,54.90
2018-07-15T21:05:04.007Z,54.70
2018-07-15T21:07:32.416Z,54.70
2018-07-15T21:10:00.776Z,54.70
2018-07-15T21:12:30.193Z,54.10
2018-07-15T21:14:58.643Z,54.10
2018-07-15T21:17:27.040Z,54.60
2018-07-15T21:19:55.407Z,54.70
2018-07-15T21:22:23.763Z,54.70
2018-07-15T21:24:52.215Z,54.70
2018-07-15T21:27:20.615Z,55.90
2018-07-15T21:29:49.026Z,55.60
2018-07-15T21:32:17.378Z,56.00
2018-07-15T21:34:45.833Z,55.50
2018-07-15T21:37:14.375Z,55.70
2018-07-15T21:39:42.773Z,56.00
2018-07-15T21:42:11.186Z,56.30
2018-07-15T21:44:39.499Z,56.80
2018-07-15T21:47:08.492Z,56.70
2018-07-15T21:49:36.908Z,56.80
2018-07-15T21:52:05.340Z,57.00
2018-07-15T21:54:33.689Z,57.40
2018-07-15T21:57:02.265Z,57.70
2018-07-15T21:59:30.735Z,58.00
2018-07-15T22:01:59.059Z,58.30
2018-07-15T22:04:27.480Z,58.60
2018-07-15T22:07:07.004Z,59.00
2018-07-15T22:09:55.936Z,59.10
2018-07-15T22:12:24.311Z,59.60
2018-07-15T22:14:52.847Z,60.00
2018-07-15T22:17:21.404Z,60.00
2018-07-15T22:19:49.815Z,60.10
2018-07-15T22:22:18.193Z,60.40
2018-07-15T22:24:46.697Z,60.90
2018-07-15T22:27:15.138Z,61.90
2018-07-15T22:29:43.479Z,61.50
2018-07-15T22:32:11.867Z,62.00
2018-07-15T22:34:40.215Z,62.40
2018-07-15T22:37:08.835Z,62.70
2018-07-15T22:39:37.196Z,63.10
2018-07-15T22:42:05.564Z,63.20
2018-07-15T22:44:34.018Z,63.70
2018-07-15T22:47:02.446Z,64.20
2018-07-15T22:49:30.790Z,64.60
2018-07-15T22:51:59.153Z,64.60
2018-07-15T22:54:27.555Z,65.00
2018-07-15T22:56:55.917Z,65.70
2018-07-15T22:59:24.521Z,65.70
2018-07-15T23:01:52.923Z,66.30
2018-07-15T23:06:27.892Z,66.50
2018-07-15T23:08:56.295Z,67.00
2018-07-15T23:11:24.700Z,67.50
2018-07-15T23:13:59.675Z,67.90
2018-07-15T23:16:28.080Z,68.30
2018-07-15T23:18:56.456Z,68.80
2018-07-15T23:21:26.515Z,69.20
2018-07-15T23:23:54.932Z,69.10
2018-07-15T23:26:23.292Z,69.50
2018-07-15T23:28:51.688Z,69.70
2018-07-15T23:31:20.019Z,70.20
2018-07-15T23:33:48.395Z,70.40
2018-07-15T23:36:16.795Z,70.80
2018-07-15T23:38:45.156Z,71.30
2018-07-15T23:41:13.526Z,71.30
2018-07-15T23:43:41.875Z,71.60
2018-07-15T23:46:11.286Z,71.90
2018-07-15T23:48:39.631Z,72.70
2018-07-15T23:51:07.993Z,73.00
2018-07-15T23:53:36.331Z,73.40
2018-07-15T23:56:04.679Z,74.10
2018-07-15T23:58:33.067Z,74.40
